• Join FlightAware (Why Join?)
  • Login
  • US Flag GB Flag 
14:59 EDT


 

Airport Tracker/Info


-or-


 

Live Flight TrackerFlight Track Log ✈ JBU1329 ✈ 20-May-2013 ✈ KBOS - KBWI

Flight Track Log - Related Links

Times and Time Zones

All times are in EDT time to prevent confusion due to time zone crossing. See the JBU1329 flight status page for this flight to view local times or setup timezone preferences in your user account.

Time Position Orientation Groundspeed Altitude Reporting Facility
EDT Latitude Longitude Course Direction KTS MPH feet Rate Location/Type
09:18 42.3500 -71.0167 262° West 153 176 500  Level KA90
09:18 42.3333 -71.0167 180° South 161 185 1,400 1,920 Climbing KA90
09:21 42.3225 -70.8450 95° East 238 274 5,400 2,220 Climbing Boston Center
09:22 42.2180 -70.8526 240° Southwest  Level FlightAware Approximate
09:22 42.3064 -70.7444 102° East 249 287 8,600  Level Boston Center
09:23 42.1824 -70.9765 262° West  Level FlightAware Approximate
09:23 42.2358 -70.7547 186° South 203 234 10,700  Level Boston Center
09:24 42.2125 -70.8758 255° West 164 189 13,100 2,580 Climbing Boston Center
09:25 42.1892 -70.9997 256° West 262 302 15,900 2,340 Climbing Boston Center
09:26 42.1508 -71.1183 246° West 324 373 17,800 1,800 Climbing Boston Center
09:27 42.1147 -71.2367 248° West 371 427 19,500 1,800 Climbing Boston Center
09:28 42.0703 -71.3661 245° Southwest 383 441 21,500 1,800 Climbing Boston Center
09:29 42.0275 -71.5011 247° West 383 441 23,100 1,620 Climbing Boston Center
09:30 41.9703 -71.6472 242° Southwest 394 453 24,800 1,320 Climbing Boston Center
09:31 41.9233 -71.7844 245° Southwest 405 466 25,800 960 Climbing Boston Center
09:32 41.8719 -71.9356 245° Southwest 422 486 26,800 1,500 Climbing Boston Center
09:33 41.8206 -72.0808 245° Southwest 428 493 28,900 1,500 Climbing Boston Center
09:34 41.7686 -72.2231 244° Southwest 428 493 29,900 960 Climbing Boston Center
09:35 41.7167 -72.3678 244° Southwest 428 493 30,900 960 Climbing Boston Center
09:36 41.6667 -72.5150 246° West 428 493 31,900 540 Climbing Boston Center
09:37 41.6144 -72.6678 245° Southwest 439 505 32,000  Climbing Boston Center
09:38 41.5703 -72.7869 244° Southwest 444 511 32,000  Level Boston Center
09:39 41.5136 -72.9475 245° Southwest 444 511 32,000  Level Boston Center
09:40 41.4606 -73.0994 245° Southwest 444 511 32,000  Level Boston Center
09:41 41.4056 -73.2483 244° Southwest 444 511 32,000  Level Boston Center
09:42 41.3200 -73.4867 245° Southwest 460 529 32,000  Level New York Center
09:43 41.2561 -73.6303 239° Southwest 460 529 32,000  Level New York Center
09:44 41.1778 -73.7619 232° Southwest 466 536 32,000  Level New York Center
09:45 41.0953 -73.8989 231° Southwest 471 542 32,000  Level New York Center
09:46 41.0167 -74.0328 232° Southwest 471 542 32,000 -120 Level New York Center
09:47 40.9378 -74.1661 232° Southwest 471 542 31,800 -1,380 Descending New York Center
09:48 40.8461 -74.3125 230° Southwest 471 542 29,300 -1,920 Descending New York Center
09:49 40.7692 -74.4372 231° Southwest 466 536 28,000 -660 Descending New York Center
09:50 40.6944 -74.5619 232° Southwest 454 522 28,000  Level New York Center
09:51 40.6403 -74.6872 240° Southwest 445 512 28,000 -780 Level New York Center
09:52 40.5750 -74.8367 240° Southwest 430 495 26,500 -1,560 Descending New York Center
09:53 40.5203 -74.9700 242° Southwest 421 484 24,900 -1,500 Descending New York Center
09:54 40.4675 -75.1031 242° Southwest 421 484 23,500 -1,500 Descending New York Center
09:55 40.4086 -75.2275 238° Southwest 416 479 22,000 -1,500 Descending New York Center
09:56 40.3386 -75.3183 225° Southwest 411 473 20,600 -1,500 Descending New York Center
09:57 40.2597 -75.4139 223° Southwest 399 459 19,100 -1,320 Descending New York Center
09:58 40.1742 -75.5194 223° Southwest 393 452 18,000 -600 Descending New York Center
09:59 40.1061 -75.6044 224° Southwest 388 447 18,000  Level New York Center
10:00 40.0247 -75.7072 224° Southwest 378 435 18,000 -840 Level New York Center
10:01 39.9719 -75.8253 240° Southwest 378 435 16,400 -2,100 Descending New York Center
10:02 39.9153 -75.9267 234° Southwest 367 422 13,800 -1,440 Descending New York Center
10:04 39.7500 -76.0500 210° Southwest 360 414 12,400 -660 Descending Potomac TRACON
10:05 39.6833 -76.1333 224° Southwest 353 406 12,000 -480 Descending Potomac TRACON
10:06 39.6167 -76.2333 229° Southwest 352 405 11,500 -660 Descending Potomac TRACON
10:07 39.5833 -76.3000 237° Southwest 318 366 10,900 -1,080 Descending Potomac TRACON
10:08 39.5000 -76.3667 212° Southwest 282 325 9,500 -1,380 Descending Potomac TRACON
10:09 39.4500 -76.4167 218° Southwest 275 316 8,200 -1,620 Descending Potomac TRACON
10:10 39.3833 -76.4500 201° Southwest 281 323 6,500 -1,260 Descending Potomac TRACON
10:11 39.3167 -76.4167 159° South 244 281 5,900 -900 Descending Potomac TRACON
10:12 39.2667 -76.3833 153° Southeast 227 261 4,800 -960 Descending Potomac TRACON
10:13 39.2000 -76.3667 169° South 223 257 4,000 -420 Descending Potomac TRACON
10:14 39.1500 -76.3500 166° South 220 253 4,000 -240 Level Potomac TRACON
10:15 39.0833 -76.3500 180° South 208 239 3,600 -540 Descending Potomac TRACON
10:16 39.0500 -76.3833 218° Southwest 189 217 3,000 -360 Descending Potomac TRACON
10:17 39.0333 -76.4500 252° West 186 214 3,000 -420 Level Potomac TRACON
10:18 39.0500 -76.5000 293° West 187 215 2,200 -540 Descending Potomac TRACON
10:19 39.0667 -76.5667 288° West 189 217 2,000 -240 Descending Potomac TRACON
10:20 39.1000 -76.6000 322° Northwest 186 214 1,800 -540 Descending Potomac TRACON
10:21 39.1333 -76.6333 322° Northwest 139 160 1,000 -840 Descending Potomac TRACON